Flight Track Log - Related Links

Times and Time Zones

All times are in EDT time to prevent confusion due to time zone crossing. See the UAL1206 flight status page for this flight to view local times or setup timezone preferences in your user account.

Time Position Orientation Groundspeed Altitude Reporting Facility
EDT Latitude Longitude Course Direction KTS MPH feet Rate Location/Type
Sat 12:01:39 PM 33.9333 -118.4500 90° East 185 213 1,400  Level Southern California TRACON
Sat 12:02:35 PM 33.9008 -118.5006 232° Southwest 232 267 3,600 2,288 Climbing Los Angeles Center
Sat 12:03:00 PM 33.7595 -118.6126 132° Southeast  Level FlightAware Approximate
Sat 12:03:37 PM 33.8264 -118.5186 191° South 272 313 5,900  Level Los Angeles Center
Sat 12:04:00 PM 33.6735 -118.5002 126° Southeast  Level FlightAware Approximate
Sat 12:04:38 PM 33.7478 -118.5200 181° South 285 328 8,800  Level Los Angeles Center
Sat 12:05:00 PM 33.5970 -118.3783 126° Southeast  Level FlightAware Approximate
Sat 12:05:40 PM 33.6739 -118.4903 161° South 307 353 11,000  Level Los Angeles Center
Sat 12:06:00 PM 33.5259 -118.2518 121° Southeast  Level FlightAware Approximate
Sat 12:06:42 PM 33.6172 -118.4086 130° Southeast 323 372 14,000  Level Los Angeles Center
Sat 12:07:00 PM 33.5000 -118.1117 90° East  Level FlightAware Approximate
Sat 12:07:43 PM 33.5433 -118.3039 130° Southeast 344 396 16,300  Level Los Angeles Center
Sat 12:08:45 PM 33.4717 -118.2061 131° Southeast 391 450 18,300 2,129 Climbing Los Angeles Center
Sat 12:09:47 PM 33.3967 -118.1053 132° Southeast 405 466 20,700 2,129 Climbing Los Angeles Center
Sat 12:10:49 PM 33.3211 -118.0008 131° Southeast 415 478 22,700 1,707 Climbing Los Angeles Center
Sat 12:11:50 PM 33.2414 -117.8936 132° Southeast 431 496 24,200 1,512 Climbing Los Angeles Center
Sat 12:12:52 PM 33.1581 -117.7811 131° Southeast 449 517 25,800 1,597 Climbing Los Angeles Center
Sat 12:13:54 PM 33.0550 -117.6431 132° Southeast 464 534 27,500 1,548 Climbing Los Angeles Center
Sat 12:14:56 PM 32.9689 -117.5261 131° Southeast 471 542 29,000 1,268 Climbing Los Angeles Center
Sat 12:15:57 PM 32.8806 -117.4072 131° Southeast 478 550 30,100 1,171 Climbing Los Angeles Center
Sat 12:16:59 PM 32.7900 -117.2883 132° Southeast 483 556 31,400 1,210 Climbing Los Angeles Center
Sat 12:18:01 PM 32.6989 -117.1650 131° Southeast 488 562 32,600 1,258 Climbing Los Angeles Center
Sat 12:19:03 PM 32.6108 -117.0461 131° Southeast 484 557 34,000 1,355 Climbing Los Angeles Center
Sat 12:21:00 PM 32.4159 -116.8893 156° South  Level FlightAware Approximate
Sat 12:28:00 PM 31.6130 -116.4813 157° South  Level FlightAware Approximate
Sat 12:29:00 PM 31.4980 -116.4243 158° South  Level FlightAware Approximate
Sat 12:30:00 PM 31.3825 -116.3687 158° South  Level FlightAware Approximate
Sat 12:31:00 PM 31.2669 -116.3132 158° South  Level FlightAware Approximate
Sat 12:32:00 PM 31.1513 -116.2579 158° South  Level FlightAware Approximate
Sat 12:33:00 PM 31.0266 -116.1985 158° South  Level FlightAware Approximate
Sat 12:34:00 PM 30.9018 -116.1393 158° South  Level FlightAware Approximate
Sat 12:35:00 PM 30.7770 -116.0803 158° South  Level FlightAware Approximate
Sat 12:36:00 PM 30.6521 -116.0215 158° South  Level FlightAware Approximate
Sat 12:37:00 PM 30.5272 -115.9628 158° South  Level FlightAware Approximate
Sat 12:38:00 PM 30.4135 -115.8803 145° Southeast  Level FlightAware Approximate
Sat 12:39:00 PM 30.3028 -115.7913 145° Southeast  Level FlightAware Approximate
Sat 12:40:00 PM 30.1920 -115.7025 145° Southeast  Level FlightAware Approximate
Sat 12:41:00 PM 30.0812 -115.6140 145° Southeast  Level FlightAware Approximate
Sat 12:42:00 PM 29.9704 -115.5256 145° Southeast  Level FlightAware Approximate
Sat 12:43:00 PM 29.8594 -115.4374 145° Southeast  Level FlightAware Approximate
Sat 12:44:00 PM 29.7484 -115.3494 145° Southeast  Level FlightAware Approximate
Sat 12:45:00 PM 29.6374 -115.2616 145° Southeast  Level FlightAware Approximate
Sat 12:46:00 PM 29.5263 -115.1740 146° Southeast  Level FlightAware Approximate
Sat 12:47:00 PM 29.4151 -115.0866 146° Southeast  Level FlightAware Approximate
Sat 12:48:00 PM 29.3039 -114.9994 146° Southeast  Level FlightAware Approximate
Sat 12:49:00 PM 29.1910 -114.9151 147° Southeast  Level FlightAware Approximate
Sat 12:50:00 PM 29.0778 -114.8317 147° Southeast  Level FlightAware Approximate
Sat 12:51:00 PM 28.9645 -114.7483 145° Southeast  Level FlightAware Approximate
Sat 12:52:00 PM 28.8537 -114.6606 145° Southeast  Level FlightAware Approximate
Sat 12:53:00 PM 28.7430 -114.5732 145° Southeast  Level FlightAware Approximate
Sat 12:54:00 PM 28.6320 -114.4860 146° Southeast  Level FlightAware Approximate
Sat 12:55:00 PM 28.5208 -114.3995 146° Southeast  Level FlightAware Approximate
Sat 12:56:00 PM 28.4125 -114.3083 143° Southeast  Level FlightAware Approximate
Sat 12:57:00 PM 28.2973 -114.2296 151° Southeast  Level FlightAware Approximate
Sat 12:58:00 PM 28.1837 -114.1478 145° Southeast  Level FlightAware Approximate
Sat 12:59:00 PM 28.0730 -114.0608 145° Southeast  Level FlightAware Approximate
Sat 01:00:00 PM 27.9746 -113.9587 129° Southeast  Level FlightAware Approximate
Sat 01:01:00 PM 27.8890 -113.8410 129° Southeast  Level FlightAware Approximate
Sat 01:02:00 PM 27.8016 -113.7251 130° Southeast  Level FlightAware Approximate
Sat 01:03:00 PM 27.7140 -113.6094 131° Southeast  Level FlightAware Approximate
Sat 01:04:00 PM 27.6264 -113.4939 131° Southeast  Level FlightAware Approximate
Sat 01:05:00 PM 27.5386 -113.3786 131° Southeast  Level FlightAware Approximate
Sat 01:06:00 PM 27.4507 -113.2635 131° Southeast  Level FlightAware Approximate
Sat 01:07:00 PM 27.3628 -113.1485 131° Southeast  Level FlightAware Approximate
Sat 01:08:00 PM 27.2751 -113.0334 130° Southeast  Level FlightAware Approximate
Sat 01:09:00 PM 27.1883 -112.9176 130° Southeast  Level FlightAware Approximate
Sat 01:10:00 PM 27.1019 -112.8015 130° Southeast  Level FlightAware Approximate
Sat 01:11:00 PM 27.0158 -112.6851 130° Southeast  Level FlightAware Approximate
Sat 01:12:00 PM 26.9296 -112.5689 130° Southeast  Level FlightAware Approximate
Sat 01:13:00 PM 26.8433 -112.4530 130° Southeast  Level FlightAware Approximate
Sat 01:14:00 PM 26.7577 -112.3382 130° Southeast  Level FlightAware Approximate
Sat 01:15:00 PM 26.6676 -112.2281 135° Southeast  Level FlightAware Approximate
Sat 01:16:00 PM 26.5744 -112.1214 130° Southeast  Level FlightAware Approximate
Sat 01:17:00 PM 26.4882 -112.0075 130° Southeast  Level FlightAware Approximate
Sat 01:18:00 PM 26.4020 -111.8937 130° Southeast  Level FlightAware Approximate
Sat 01:19:00 PM 26.3157 -111.7801 130° Southeast  Level FlightAware Approximate
Sat 01:20:00 PM 26.2293 -111.6666 130° Southeast  Level FlightAware Approximate
Sat 01:21:00 PM 26.1415 -111.5546 131° Southeast  Level FlightAware Approximate
Sat 01:22:00 PM 26.0534 -111.4429 131° Southeast  Level FlightAware Approximate
Sat 01:23:00 PM 25.9653 -111.3314 130° Southeast  Level FlightAware Approximate
Sat 01:24:00 PM 25.8802 -111.2171 130° Southeast  Level FlightAware Approximate
Sat 01:25:00 PM 25.7950 -111.1030 130° Southeast  Level FlightAware Approximate
Sat 01:26:00 PM 25.7097 -110.9890 130° Southeast  Level FlightAware Approximate
Sat 01:27:00 PM 25.6243 -110.8752 130° Southeast  Level FlightAware Approximate
Sat 01:28:00 PM 25.5389 -110.7615 130° Southeast  Level FlightAware Approximate
Sat 01:29:00 PM 25.4533 -110.6480 130° Southeast  Level FlightAware Approximate
Sat 01:30:00 PM 25.3677 -110.5347 130° Southeast  Level FlightAware Approximate
Sat 01:31:00 PM 25.2865 -110.4182 131° Southeast  Level FlightAware Approximate
Sat 01:32:00 PM 25.2005 -110.3054 129° Southeast  Level FlightAware Approximate
Sat 01:33:00 PM 25.1162 -110.1911 129° Southeast  Level FlightAware Approximate
Sat 01:34:00 PM 25.0317 -110.0770 129° Southeast  Level FlightAware Approximate
Sat 01:35:00 PM 24.9472 -109.9630 130° Southeast  Level FlightAware Approximate
Sat 01:36:00 PM 24.8593 -109.8524 133° Southeast  Level FlightAware Approximate
Sat 01:37:00 PM 24.7531 -109.7781 174° South  Level FlightAware Approximate
Sat 01:38:00 PM 24.6201 -109.7667 180° South  Level FlightAware Approximate
Sat 01:39:00 PM 24.4867 -109.7667 180° South  Level FlightAware Approximate
Sat 01:40:00 PM 24.3533 -109.7652 174° South  Level FlightAware Approximate
Sat 01:41:00 PM 24.2205 -109.7504 174° South  Level FlightAware Approximate
Sat 01:42:00 PM 24.1085 -109.6717 147° Southeast  Level FlightAware Approximate
Sat 01:43:00 PM 23.9970 -109.5913 147° Southeast  Level FlightAware Approximate
Sat 01:44:00 PM 23.8857 -109.5199 191° South  Level FlightAware Approximate
Sat 01:45:00 PM 23.7549 -109.5489 191° South  Level FlightAware Approximate
Sat 01:46:00 PM 23.6271 -109.5910 197° South  Level FlightAware Approximate
Sat 01:47:00 PM 23.4980 -109.6271 190° South  Level FlightAware Approximate
Sat 01:48:00 PM 23.3672 -109.6554 197° South  Level FlightAware Approximate
Sat 01:49:00 PM 23.2393 -109.6910 200° South  Level FlightAware Approximate
Sat 01:50:00 PM 23.1518 -109.7210 190° South  Level Estimated
Sat 01:51:00 PM 23.1518 -109.7210 190° South  Level Estimated
Sat 01:52:00 PM 23.1518 -109.7210 190° South  Level Estimated
Sat 01:53:00 PM 23.1518 -109.7210 190° South  Level Estimated
Sat 01:54:00 PM 23.1518 -109.7210 190° South  Level Estimated
Sat 01:55:00 PM 23.1518 -109.7210 190° South  Level Estimated

Login

Don't have an account? Register now (free) for customized features, flight alerts, and more!